Time;durP1;ratioP1;P1;durP2;ratioP2;P2;SDS_P1;SDS_P2;PMS_P1;PMS_P2;Temp;Humidity;BMP_temperature;BMP_pressure;BME280_temperature;BME280_humidity;BME280_pressure;Samples;Min_cycle;Max_cycle;Signal;HPM_P1;HPM_P2
2020/12/24 00:00:21;;;;;;;6.60;1.10;;;25.00;97.40;;;;;;4972455;28;20027;-79
2020/12/24 00:02:48;;;;;;;9.80;1.13;;;24.50;97.60;;;;;;4971661;28;20035;-79
2020/12/24 00:05:16;;;;;;;10.30;1.13;;;24.60;97.90;;;;;;4972159;28;20510;-79
2020/12/24 00:07:43;;;;;;;7.63;1.10;;;24.70;97.90;;;;;;4973649;28;20035;-77
2020/12/24 00:10:11;;;;;;;6.93;0.88;;;25.00;98.00;;;;;;4972876;28;20038;-76
2020/12/24 00:12:39;;;;;;;7.75;1.15;;;25.30;96.80;;;;;;4966252;28;20019;-77
2020/12/24 00:15:07;;;;;;;6.60;1.20;;;25.20;97.60;;;;;;4955295;28;20035;-80
2020/12/24 00:17:35;;;;;;;8.63;1.73;;;25.20;97.00;;;;;;4970429;28;20047;-78
2020/12/24 00:20:05;;;;;;;9.32;0.95;;;24.80;97.00;;;;;;4973681;28;20027;-78
2020/12/24 00:22:33;;;;;;;7.85;1.38;;;25.00;97.90;;;;;;4970765;28;20041;-79
2020/12/24 00:25:00;;;;;;;7.45;1.67;;;25.60;96.60;;;;;;4972877;28;20038;-80
2020/12/24 00:27:27;;;;;;;4.28;0.57;;;25.60;96.60;;;;;;4970903;28;20019;-78
2020/12/24 00:29:55;;;;;;;5.72;0.75;;;25.70;95.60;;;;;;4973029;28;20102;-78
2020/12/24 00:32:22;;;;;;;6.35;0.70;;;25.60;95.70;;;;;;4971615;28;21049;-78
2020/12/24 00:34:49;;;;;;;9.45;1.52;;;26.00;97.00;;;;;;4974965;28;20035;-78
2020/12/24 00:37:17;;;;;;;4.28;0.63;;;26.20;98.00;;;;;;4970382;28;20022;-77
2020/12/24 00:39:44;;;;;;;6.55;0.88;;;26.30;95.50;;;;;;4974186;28;20065;-77
2020/12/24 00:42:11;;;;;;;8.65;1.02;;;26.30;95.00;;;;;;4970118;28;20050;-77
2020/12/24 00:44:39;;;;;;;9.88;1.10;;;26.10;94.90;;;;;;4974369;28;20031;-78
2020/12/24 00:47:06;;;;;;;7.60;0.93;;;26.30;95.90;;;;;;4972845;28;20106;-79
2020/12/24 00:49:33;;;;;;;7.85;1.83;;;26.70;94.00;;;;;;4974508;28;20026;-78
2020/12/24 00:52:01;;;;;;;5.28;1.00;;;26.70;95.20;;;;;;4972554;28;20115;-77
2020/12/24 00:54:28;;;;;;;5.68;1.10;;;27.00;94.70;;;;;;4972258;28;20049;-78
2020/12/24 00:56:55;;;;;;;10.57;1.38;;;27.10;94.10;;;;;;4972519;28;20030;-77
2020/12/24 00:59:22;;;;;;;9.45;1.38;;;27.10;93.60;;;;;;4981855;23;20138;-77
2020/12/24 01:01:50;;;;;;;5.45;0.70;;;26.90;93.10;;;;;;4981124;23;20051;-78
2020/12/24 01:04:17;;;;;;;4.55;0.50;;;27.10;92.70;;;;;;4967554;28;20031;-77
2020/12/24 01:06:45;;;;;;;9.23;1.17;;;27.00;93.30;;;;;;4986795;23;20078;-78
2020/12/24 01:09:12;;;;;;;4.25;0.90;;;27.10;93.80;;;;;;4955309;28;20023;-79
2020/12/24 01:11:39;;;;;;;4.35;0.68;;;26.60;92.20;;;;;;4971023;28;20039;-80
2020/12/24 01:14:07;;;;;;;6.88;0.70;;;26.00;93.40;;;;;;4974698;28;20033;-79
2020/12/24 01:16:34;;;;;;;7.78;0.93;;;26.50;95.10;;;;;;4988391;23;20055;-78
2020/12/24 01:19:02;;;;;;;7.00;0.93;;;26.40;94.50;;;;;;4972512;28;20452;-78
2020/12/24 01:21:29;;;;;;;8.35;1.63;;;26.40;93.70;;;;;;4972178;28;20027;-77
2020/12/24 01:23:57;;;;;;;8.20;0.93;;;26.30;93.90;;;;;;4974039;28;20488;-79
2020/12/24 01:26:24;;;;;;;7.55;1.90;;;26.10;93.20;;;;;;4954976;28;20038;-79
2020/12/24 01:28:51;;;;;;;10.45;2.10;;;26.60;96.00;;;;;;4954770;28;20033;-78
2020/12/24 01:31:19;;;;;;;12.75;2.05;;;26.80;96.70;;;;;;4954359;28;20019;-79
2020/12/24 01:33:46;;;;;;;10.90;1.30;;;27.00;97.30;;;;;;4990220;23;20046;-79
2020/12/24 01:36:13;;;;;;;9.85;1.05;;;26.90;97.80;;;;;;4973749;28;20023;-79
2020/12/24 01:38:41;;;;;;;7.75;1.20;;;26.90;98.90;;;;;;4954558;28;20031;-79
2020/12/24 01:41:08;;;;;;;6.47;1.30;;;26.70;98.40;;;;;;4937185;29;20035;-79
2020/12/24 01:43:36;;;;;;;11.45;1.63;;;26.60;97.20;;;;;;4954004;28;20031;-80
2020/12/24 01:46:03;;;;;;;10.70;1.95;;;26.80;97.30;;;;;;4954598;28;20082;-79
2020/12/24 01:48:30;;;;;;;9.18;1.00;;;26.70;98.40;;;;;;4956624;28;20031;-79
2020/12/24 01:50:58;;;;;;;9.75;1.35;;;26.10;99.00;;;;;;4954443;28;20033;-79
2020/12/24 01:53:26;;;;;;;8.48;1.35;;;26.10;99.90;;;;;;4953255;28;20507;-79
2020/12/24 01:55:57;;;;;;;9.63;1.65;;;26.70;98.90;;;;;;4962720;28;20488;-79
2020/12/24 01:58:24;;;;;;;9.35;1.17;;;26.80;99.90;;;;;;4955683;28;20146;-79
2020/12/24 02:00:52;;;;;;;9.98;1.25;;;26.80;98.60;;;;;;4965439;28;20480;-79
2020/12/24 02:03:19;;;;;;;6.82;1.42;;;26.90;99.50;;;;;;4955126;28;20575;-83
2020/12/24 02:05:47;;;;;;;9.55;1.48;;;26.80;97.80;;;;;;4987562;23;20101;-79
2020/12/24 02:08:16;;;;;;;13.60;1.25;;;26.40;98.70;;;;;;4970655;28;20531;-79
2020/12/24 02:10:44;;;;;;;13.30;2.10;;;26.50;99.90;;;;;;4992801;28;20042;-78
2020/12/24 02:13:11;;;;;;;7.63;1.85;;;26.40;98.90;;;;;;4976339;28;20041;-79
2020/12/24 02:15:39;;;;;;;9.30;1.55;;;26.40;99.90;;;;;;4973424;28;20037;-79
2020/12/24 02:18:06;;;;;;;15.52;1.67;;;26.50;99.90;;;;;;4972763;28;20035;-79
2020/12/24 02:20:33;;;;;;;7.97;1.40;;;26.60;99.90;;;;;;4973374;28;20026;-80
2020/12/24 02:23:01;;;;;;;9.60;1.67;;;27.00;99.70;;;;;;4984949;28;20395;-80
2020/12/24 02:25:28;;;;;;;8.70;1.33;;;27.20;99.90;;;;;;4992363;28;20033;-79
2020/12/24 02:27:56;;;;;;;9.25;1.13;;;27.60;98.90;;;;;;4978273;28;20027;-79
2020/12/24 02:30:23;;;;;;;5.38;0.98;;;27.60;98.20;;;;;;4973047;28;20023;-79
2020/12/24 02:32:50;;;;;;;9.35;1.77;;;28.00;99.40;;;;;;4971792;28;20034;-79
2020/12/24 02:35:18;;;;;;;9.18;1.40;;;28.20;98.00;;;;;;4972933;28;20058;-79
2020/12/24 02:37:45;;;;;;;7.80;1.38;;;28.80;99.00;;;;;;4972294;28;20022;-79
2020/12/24 02:40:12;;;;;;;6.18;1.30;;;28.30;97.40;;;;;;4973023;28;20392;-80
2020/12/24 02:42:40;;;;;;;9.70;1.10;;;28.10;97.80;;;;;;4972083;28;20030;-79
2020/12/24 02:45:07;;;;;;;8.20;1.45;;;27.40;97.70;;;;;;4973087;28;20122;-79
2020/12/24 02:47:37;;;;;;;9.18;1.95;;;26.50;98.40;;;;;;4972600;28;20034;-79
2020/12/24 02:50:07;;;;;;;11.27;1.90;;;26.40;99.90;;;;;;4955402;28;20054;-79
2020/12/24 02:52:35;;;;;;;11.90;1.42;;;26.60;99.20;;;;;;4970166;28;20027;-79
2020/12/24 02:55:05;;;;;;;11.70;1.63;;;26.50;99.10;;;;;;4971159;28;20075;-79
2020/12/24 02:57:33;;;;;;;9.48;1.10;;;26.50;99.50;;;;;;4977157;28;20027;-78
2020/12/24 03:00:12;;;;;;;12.63;1.25;;;26.50;99.90;;;;;;4973815;28;20026;-79
2020/12/24 03:02:40;;;;;;;8.55;1.35;;;26.40;98.90;;;;;;4975909;28;20031;-79
2020/12/24 03:05:07;;;;;;;16.15;2.30;;;26.30;99.90;;;;;;4985893;23;20065;-79
2020/12/24 03:07:35;;;;;;;7.30;1.67;;;26.40;99.90;;;;;;4986701;23;20062;-79
2020/12/24 03:10:04;;;;;;;9.80;1.67;;;26.40;99.40;;;;;;5002351;23;20077;-80
2020/12/24 03:12:31;;;;;;;5.28;0.93;;;26.10;99.80;;;;;;4982301;23;20026;-78
2020/12/24 03:14:58;;;;;;;9.07;1.23;;;26.30;99.90;;;;;;4956729;29;20023;-79
2020/12/24 03:17:26;;;;;;;6.05;1.10;;;26.30;99.90;;;;;;4947226;29;20482;-79
2020/12/24 03:19:53;;;;;;;9.40;2.03;;;26.40;99.50;;;;;;4938130;29;20118;-79
2020/12/24 03:22:20;;;;;;;8.65;1.40;;;26.90;99.90;;;;;;4972783;23;20047;-79
2020/12/24 03:24:47;;;;;;;12.73;1.73;;;27.00;99.90;;;;;;4976220;28;20395;-79
2020/12/24 03:27:15;;;;;;;10.80;1.90;;;27.50;99.30;;;;;;4976247;28;20033;-79
2020/12/24 03:29:42;;;;;;;13.52;1.73;;;27.50;98.80;;;;;;4976203;28;20110;-79
2020/12/24 03:32:09;;;;;;;10.50;2.45;;;27.30;99.90;;;;;;4976302;28;20023;-79
2020/12/24 03:34:37;;;;;;;9.65;1.65;;;27.50;99.10;;;;;;4976350;28;20023;-80
2020/12/24 03:37:04;;;;;;;12.02;2.25;;;27.60;97.90;;;;;;4983214;28;20122;-80
2020/12/24 03:39:31;;;;;;;10.82;1.52;;;27.50;98.70;;;;;;5006566;23;20540;-80
2020/12/24 03:41:58;;;;;;;6.85;1.58;;;27.80;99.00;;;;;;4989191;28;20022;-80
2020/12/24 03:44:25;;;;;;;10.10;1.50;;;27.80;98.60;;;;;;4975981;28;20050;-80
2020/12/24 03:46:53;;;;;;;12.48;1.45;;;27.70;97.40;;;;;;4977072;28;20042;-80
2020/12/24 03:49:20;;;;;;;10.07;1.38;;;27.50;98.70;;;;;;4989201;28;20047;-80
2020/12/24 03:51:47;;;;;;;8.55;1.23;;;27.20;97.80;;;;;;4978808;28;20046;-81
2020/12/24 03:54:15;;;;;;;8.43;1.33;;;27.40;99.40;;;;;;4975892;28;20052;-80
2020/12/24 03:56:42;;;;;;;10.07;1.45;;;27.10;98.00;;;;;;4975852;28;20089;-80
2020/12/24 03:59:09;;;;;;;7.50;1.35;;;27.00;98.70;;;;;;4975550;28;20049;-80
2020/12/24 04:01:36;;;;;;;5.38;1.35;;;27.10;99.50;;;;;;4973738;28;20031;-80
2020/12/24 04:04:04;;;;;;;8.85;1.88;;;27.10;98.30;;;;;;4976455;28;20049;-81
2020/12/24 04:06:31;;;;;;;10.80;1.73;;;27.20;98.10;;;;;;4975332;28;20042;-81
2020/12/24 04:08:58;;;;;;;7.60;1.20;;;27.00;98.00;;;;;;4975041;28;20035;-80
2020/12/24 04:11:25;;;;;;;10.70;1.13;;;27.10;98.30;;;;;;4970762;23;21104;-79
2020/12/24 04:13:53;;;;;;;8.85;1.17;;;27.20;97.90;;;;;;4958456;28;20500;-79
2020/12/24 04:16:24;;;;;;;6.80;1.95;;;27.10;98.10;;;;;;4974172;28;20023;-79
2020/12/24 04:18:51;;;;;;;8.70;1.25;;;26.90;97.80;;;;;;4954720;28;20035;-79
2020/12/24 04:21:20;;;;;;;9.65;1.55;;;26.70;98.10;;;;;;4963739;28;20019;-80
2020/12/24 04:23:48;;;;;;;14.73;1.83;;;26.50;98.50;;;;;;4972292;28;20093;-80
2020/12/24 04:26:24;;;;;;;8.13;1.58;;;26.50;99.00;;;;;;4971158;28;20022;-79
2020/12/24 04:28:51;;;;;;;8.05;1.52;;;26.60;98.30;;;;;;4972803;28;20092;-80
2020/12/24 04:31:19;;;;;;;9.07;2.28;;;26.40;98.70;;;;;;4956439;28;20114;-79
2020/12/24 04:33:46;;;;;;;11.27;2.42;;;26.30;98.10;;;;;;4974673;28;20027;-78
2020/12/24 04:36:15;;;;;;;9.98;1.33;;;26.20;99.00;;;;;;4974511;28;20484;-80
2020/12/24 04:38:43;;;;;;;8.88;1.35;;;26.10;99.00;;;;;;4973873;28;20027;-79
2020/12/24 04:41:11;;;;;;;7.22;1.52;;;26.20;98.60;;;;;;4955065;28;20117;-80
2020/12/24 04:43:39;;;;;;;8.48;1.55;;;26.00;99.00;;;;;;4972606;28;20039;-78
2020/12/24 04:46:07;;;;;;;8.57;1.42;;;26.00;99.10;;;;;;4968845;28;20062;-79
2020/12/24 04:48:35;;;;;;;7.10;1.13;;;25.80;98.90;;;;;;4971335;28;20027;-79
2020/12/24 04:51:05;;;;;;;9.32;1.85;;;25.80;98.90;;;;;;4973362;28;20360;-79
2020/12/24 04:53:33;;;;;;;6.05;1.60;;;25.90;98.60;;;;;;4971719;28;20039;-79
2020/12/24 04:56:00;;;;;;;12.63;1.58;;;26.10;99.00;;;;;;4974714;28;20022;-80
2020/12/24 04:58:28;;;;;;;11.68;1.83;;;26.00;98.40;;;;;;4972339;28;20026;-81
2020/12/24 05:00:55;;;;;;;10.77;2.03;;;25.80;98.40;;;;;;4974505;28;20150;-79
2020/12/24 05:03:23;;;;;;;7.32;1.40;;;25.70;99.00;;;;;;4970861;28;20517;-81
2020/12/24 05:05:52;;;;;;;9.48;1.30;;;25.70;99.60;;;;;;4972264;28;20042;-80
2020/12/24 05:08:19;;;;;;;6.65;0.75;;;25.50;99.60;;;;;;4956320;28;20325;-80
2020/12/24 05:11:03;;;;;;;9.00;1.10;;;25.60;99.60;;;;;;4974397;28;20031;-80
2020/12/24 05:13:30;;;;;;;;;;;25.60;99.80;;;;;;5006492;23;20134;-80
2020/12/24 05:15:57;;;;;;;11.52;1.42;;;25.50;99.00;;;;;;4991121;23;20016;-80
2020/12/24 05:18:24;;;;;;;11.27;2.00;;;25.40;99.70;;;;;;4966746;28;20027;-80
2020/12/24 05:20:52;;;;;;;9.70;1.65;;;25.40;99.90;;;;;;4973730;23;20065;-79
2020/12/24 05:23:21;;;;;;;10.80;1.38;;;25.50;99.90;;;;;;4969478;28;20027;-79
2020/12/24 05:25:49;;;;;;;7.20;0.95;;;25.50;99.90;;;;;;4974410;28;20035;-80
2020/12/24 05:30:42;;;;;;;9.48;1.58;;;25.70;99.60;;;;;;5007770;23;20042;-80
2020/12/24 05:33:10;;;;;;;11.63;1.65;;;25.80;99.80;;;;;;4974914;28;20023;-78
2020/12/24 05:35:37;;;;;;;5.65;1.10;;;25.70;99.70;;;;;;4982942;28;20110;-79
2020/12/24 05:38:04;;;;;;;7.43;1.67;;;25.60;99.90;;;;;;4972719;28;20421;-79
2020/12/24 05:40:32;;;;;;;8.65;1.35;;;25.60;99.90;;;;;;4971554;28;20027;-80
2020/12/24 05:43:01;;;;;;;9.13;1.30;;;25.70;99.90;;;;;;4973531;28;20033;-79
2020/12/24 05:45:32;;;;;;;9.73;1.40;;;25.80;99.90;;;;;;4990127;23;20110;-80
2020/12/24 05:48:14;;;;;;;12.82;1.40;;;25.70;99.70;;;;;;4972063;28;20025;-80
2020/12/24 05:50:43;;;;;;;12.20;1.65;;;25.70;99.60;;;;;;4974008;28;20026;-80
2020/12/24 05:53:12;;;;;;;8.50;1.20;;;25.80;99.60;;;;;;4971654;28;20034;-79
2020/12/24 05:55:42;;;;;;;10.07;2.08;;;25.70;99.30;;;;;;4956253;28;20035;-79
2020/12/24 05:58:10;;;;;;;9.68;1.33;;;25.50;99.90;;;;;;4971700;28;20035;-79
2020/12/24 06:00:41;;;;;;;13.95;1.63;;;25.40;99.90;;;;;;4973828;28;20081;-79
2020/12/24 06:03:17;;;;;;;8.90;1.85;;;25.40;99.90;;;;;;4971333;28;20058;-80
2020/12/24 06:05:53;;;;;;;10.93;1.58;;;25.40;99.90;;;;;;4971494;28;20031;-79
2020/12/24 06:08:24;;;;;;;9.27;1.17;;;25.50;99.90;;;;;;4970696;28;20488;-80
2020/12/24 06:11:13;;;;;;;9.07;1.50;;;25.60;99.90;;;;;;4973397;28;20058;-80
2020/12/24 06:13:45;;;;;;;13.57;1.80;;;25.50;99.90;;;;;;4960173;28;20090;-80
2020/12/24 06:16:13;;;;;;;13.70;2.58;;;25.50;99.90;;;;;;4959670;28;20038;-79
2020/12/24 06:18:43;;;;;;;8.90;2.05;;;25.50;99.90;;;;;;4978060;23;20203;-80
2020/12/24 06:21:18;;;;;;;8.57;1.23;;;25.30;99.90;;;;;;4955995;28;20061;-81
2020/12/24 06:24:01;;;;;;;9.68;1.65;;;25.30;99.90;;;;;;4972700;28;20046;-80
2020/12/24 06:26:35;;;;;;;12.65;2.15;;;25.30;99.90;;;;;;4971299;28;20023;-80
2020/12/24 06:29:03;;;;;;;7.75;1.48;;;25.10;99.90;;;;;;4969561;28;20027;-80
2020/12/24 06:31:33;;;;;;;15.43;1.85;;;25.10;99.90;;;;;;4935409;28;20035;-80
2020/12/24 06:34:24;;;;;;;12.82;2.53;;;25.10;99.90;;;;;;4968583;28;20042;-79
2020/12/24 06:36:52;;;;;;;8.98;1.85;;;25.00;99.90;;;;;;4963557;28;20030;-83
2020/12/24 06:39:39;;;;;;;8.57;1.67;;;25.10;99.90;;;;;;4969425;28;20031;-81
2020/12/24 06:42:27;;;;;;;13.55;1.83;;;25.00;99.90;;;;;;4970525;28;20043;-77
2020/12/24 06:44:54;;;;;;;11.73;1.92;;;24.90;99.90;;;;;;4973602;28;20109;-80
2020/12/24 06:47:22;;;;;;;14.45;1.98;;;24.90;99.90;;;;;;4955117;28;20147;-79
2020/12/24 06:49:49;;;;;;;13.15;1.70;;;25.00;99.90;;;;;;4970903;28;20027;-79
2020/12/24 06:52:29;;;;;;;9.70;1.27;;;24.80;99.90;;;;;;4970461;28;20034;-79
2020/12/24 06:55:31;;;;;;;10.52;1.88;;;24.70;99.90;;;;;;4968962;28;20097;-78
2020/12/24 06:57:58;;;;;;;16.50;2.78;;;24.70;99.90;;;;;;4930863;29;20489;-78
2020/12/24 07:00:26;;;;;;;12.38;2.05;;;24.70;99.90;;;;;;4963589;28;20046;-79
2020/12/24 07:02:53;;;;;;;9.80;2.10;;;24.50;99.90;;;;;;4963916;28;20022;-80
2020/12/24 07:05:42;;;;;;;12.85;2.38;;;24.60;99.90;;;;;;4970255;28;20494;-79
2020/12/24 07:08:11;;;;;;;14.13;2.33;;;24.50;99.90;;;;;;4959043;28;20110;-79
2020/12/24 07:10:49;;;;;;;12.63;1.85;;;24.60;99.90;;;;;;4969808;28;20033;-80
2020/12/24 07:13:35;;;;;;;15.50;2.58;;;24.50;99.90;;;;;;4970706;28;20035;-80
2020/12/24 07:16:07;;;;;;;12.23;2.00;;;24.40;99.90;;;;;;4971927;28;20035;-79
2020/12/24 07:18:41;;;;;;;13.73;3.85;;;24.20;99.90;;;;;;4969947;28;20166;-79
2020/12/24 07:21:11;;;;;;;;;;;24.20;99.90;;;;;;5015596;23;20085;-78
2020/12/24 07:23:40;;;;;;;19.23;2.75;;;24.10;99.90;;;;;;4982960;23;20016;-78
2020/12/24 07:26:10;;;;;;;17.10;3.50;;;24.20;99.90;;;;;;4971682;28;20023;-78
2020/12/24 07:28:42;;;;;;;10.50;2.58;;;24.20;99.90;;;;;;4982688;23;20077;-78
2020/12/24 07:31:11;;;;;;;12.85;1.90;;;24.20;99.90;;;;;;4972351;28;20023;-78
2020/12/24 07:33:47;;;;;;;12.25;2.33;;;24.20;99.90;;;;;;4969119;28;20026;-78
2020/12/24 07:36:14;;;;;;;10.10;1.95;;;24.10;99.90;;;;;;4969254;23;20416;-79
2020/12/24 07:38:42;;;;;;;14.63;2.03;;;24.00;99.90;;;;;;4969518;28;20023;-78
2020/12/24 07:41:20;;;;;;;11.02;1.90;;;23.90;99.90;;;;;;4972397;28;20030;-78
2020/12/24 07:43:47;;;;;;;7.70;1.33;;;23.90;99.90;;;;;;4953570;28;20126;-80
2020/12/24 07:46:20;;;;;;;13.02;2.08;;;23.70;99.90;;;;;;4953105;28;20031;-81
2020/12/24 07:48:48;;;;;;;19.07;2.10;;;23.80;99.90;;;;;;4955008;28;20023;-80
2020/12/24 07:51:16;;;;;;;14.30;1.88;;;23.80;99.90;;;;;;4962474;28;20027;-80
2020/12/24 07:53:44;;;;;;;14.93;2.38;;;23.80;99.90;;;;;;4983484;23;20055;-82
2020/12/24 07:56:12;;;;;;;16.00;2.22;;;23.70;99.90;;;;;;4975546;28;20022;-82
2020/12/24 07:58:41;;;;;;;14.75;2.35;;;23.80;99.90;;;;;;4965438;28;20028;-82
2020/12/24 08:01:08;;;;;;;12.65;2.20;;;23.60;99.90;;;;;;4970550;28;20089;-82
2020/12/24 08:03:35;;;;;;;12.85;2.00;;;23.70;99.90;;;;;;4972948;28;20121;-81
2020/12/24 08:06:06;;;;;;;16.08;2.70;;;23.80;99.90;;;;;;4973570;28;20472;-81
2020/12/24 08:08:38;;;;;;;16.27;2.72;;;23.60;99.90;;;;;;4975320;28;20026;-81
2020/12/24 08:11:08;;;;;;;14.25;2.70;;;23.50;99.90;;;;;;4975109;28;20030;-81
2020/12/24 08:13:35;;;;;;;14.80;2.38;;;23.40;99.90;;;;;;4975441;28;20027;-81
2020/12/24 08:16:06;;;;;;;12.63;2.05;;;23.40;99.90;;;;;;4975642;28;20034;-81
2020/12/24 08:18:42;;;;;;;11.45;2.45;;;23.40;99.90;;;;;;4971549;28;20543;-82
2020/12/24 08:21:26;;;;;;;13.48;2.17;;;23.30;99.90;;;;;;4973752;28;20027;-80
2020/12/24 08:23:56;;;;;;;13.53;2.63;;;23.20;99.90;;;;;;4972281;28;20459;-83
2020/12/24 08:26:24;;;;;;;16.02;2.55;;;23.00;99.90;;;;;;4982641;23;20063;-81
2020/12/24 08:29:04;;;;;;;18.65;3.85;;;23.00;99.90;;;;;;4974719;28;20531;-80
2020/12/24 08:31:32;;;;;;;11.63;2.28;;;22.90;99.90;;;;;;4975064;28;20499;-82
2020/12/24 08:34:00;;;;;;;15.48;4.00;;;22.80;99.90;;;;;;4974358;28;20114;-81
2020/12/24 08:36:28;;;;;;;16.63;2.38;;;22.70;99.90;;;;;;4975218;28;20105;-81
2020/12/24 08:39:10;;;;;;;16.45;2.40;;;22.70;99.90;;;;;;4974646;28;20027;-82
2020/12/24 08:41:41;;;;;;;17.33;2.83;;;22.70;99.90;;;;;;4973583;28;20031;-81
2020/12/24 08:44:09;;;;;;;16.38;2.58;;;22.70;99.90;;;;;;4972528;28;20053;-81
2020/12/24 08:46:37;;;;;;;18.73;3.00;;;22.60;99.90;;;;;;4974529;28;20531;-82
2020/12/24 08:49:24;;;;;;;20.35;3.20;;;22.60;99.90;;;;;;4974467;28;20387;-83
2020/12/24 08:52:08;;;;;;;13.38;2.50;;;22.60;99.90;;;;;;4974889;28;20031;-83
2020/12/24 08:54:36;;;;;;;15.52;2.00;;;22.60;99.90;;;;;;4959383;28;20038;-81
2020/12/24 08:57:11;;;;;;;16.38;2.63;;;22.60;99.90;;;;;;4960954;28;20035;-82
2020/12/24 08:59:38;;;;;;;19.13;3.25;;;22.60;99.90;;;;;;4965013;28;20491;-80
2020/12/24 09:02:06;;;;;;;17.80;2.97;;;22.50;99.90;;;;;;4974068;28;20026;-82
2020/12/24 09:04:33;;;;;;;18.73;3.63;;;22.40;99.90;;;;;;4974364;28;20123;-82
2020/12/24 09:07:01;;;;;;;12.10;2.88;;;22.40;99.90;;;;;;4974362;28;20154;-82
2020/12/24 09:09:28;;;;;;;23.10;3.75;;;22.40;99.90;;;;;;4973825;28;20444;-82
2020/12/24 09:11:56;;;;;;;11.70;1.77;;;22.30;99.90;;;;;;4967495;28;20062;-82
2020/12/24 09:14:26;;;;;;;19.65;3.10;;;22.30;99.90;;;;;;4973591;28;20054;-82
2020/12/24 09:17:02;;;;;;;12.30;1.75;;;22.40;99.90;;;;;;4967725;28;20022;-82
2020/12/24 09:19:29;;;;;;;12.98;2.25;;;22.30;99.90;;;;;;4973242;28;20133;-82
2020/12/24 09:22:00;;;;;;;14.68;2.95;;;22.30;99.90;;;;;;4974330;28;20018;-83
2020/12/24 09:24:28;;;;;;;16.95;2.65;;;22.20;99.90;;;;;;4962386;28;20043;-82
2020/12/24 09:26:56;;;;;;;19.23;2.92;;;22.20;99.90;;;;;;4988589;23;20050;-83
2020/12/24 09:29:27;;;;;;;12.50;2.38;;;22.20;99.90;;;;;;5000221;23;20149;-83
2020/12/24 09:31:57;;;;;;;12.10;2.20;;;22.10;99.90;;;;;;4956525;28;20033;-83
2020/12/24 09:34:25;;;;;;;21.80;2.45;;;22.20;99.90;;;;;;4986867;23;20069;-83
2020/12/24 09:36:52;;;;;;;19.05;3.67;;;22.10;99.90;;;;;;4977309;28;20098;-84
2020/12/24 09:39:20;;;;;;;22.58;3.97;;;22.10;99.90;;;;;;4986462;28;20026;-83
2020/12/24 09:41:49;;;;;;;18.88;2.38;;;22.10;99.90;;;;;;4993225;28;20554;-83
2020/12/24 09:44:18;;;;;;;23.38;2.92;;;22.00;99.90;;;;;;4988070;23;20415;-84
2020/12/24 09:46:49;;;;;;;19.58;3.33;;;22.00;99.90;;;;;;4974218;28;20170;-84
2020/12/24 09:49:17;;;;;;;21.75;3.83;;;22.00;99.90;;;;;;4973341;28;20031;-83
2020/12/24 09:51:45;;;;;;;18.20;3.22;;;21.90;99.90;;;;;;4975853;28;20034;-83
2020/12/24 09:54:12;;;;;;;20.05;3.20;;;21.90;99.90;;;;;;4987299;28;20034;-83
2020/12/24 09:56:40;;;;;;;19.48;3.63;;;21.90;99.90;;;;;;4975420;28;20130;-83
2020/12/24 09:59:07;;;;;;;19.90;2.45;;;22.00;99.90;;;;;;4992824;28;20210;-82
2020/12/24 10:01:34;;;;;;;18.05;2.58;;;22.00;99.90;;;;;;5002662;23;20051;-83
2020/12/24 10:04:02;;;;;;;19.85;3.22;;;21.90;99.90;;;;;;4978696;28;20035;-84
2020/12/24 10:06:30;;;;;;;18.00;2.88;;;21.90;99.90;;;;;;4969977;28;20058;-82
2020/12/24 10:08:57;;;;;;;24.02;2.70;;;21.80;99.90;;;;;;4971296;28;20027;-83
2020/12/24 10:11:24;;;;;;;19.75;4.03;;;21.80;99.90;;;;;;4974163;28;20018;-83
2020/12/24 10:13:52;;;;;;;19.02;3.55;;;21.80;99.90;;;;;;4969524;28;20037;-84
2020/12/24 10:16:26;;;;;;;17.23;2.70;;;21.80;99.90;;;;;;4977430;28;20073;-83
2020/12/24 10:18:52;;;;;;;;;;;21.70;99.90;;;;;;4979408;28;20355;-83
2020/12/24 10:21:20;;;;;;;17.05;2.60;;;21.80;99.90;;;;;;4979817;28;19906;-83
2020/12/24 10:23:47;;;;;;;20.15;3.58;;;21.70;99.90;;;;;;4970208;28;20039;-83
2020/12/24 10:26:17;;;;;;;16.08;2.90;;;21.70;99.90;;;;;;4972257;28;20041;-84
2020/12/24 10:28:45;;;;;;;21.25;4.15;;;21.70;99.90;;;;;;4973633;28;20034;-83
2020/12/24 10:31:12;;;;;;;16.35;2.45;;;21.70;99.90;;;;;;4977039;28;20027;-83
2020/12/24 10:33:39;;;;;;;13.55;2.67;;;21.70;99.90;;;;;;4977831;23;20051;-84
2020/12/24 10:36:06;;;;;;;15.73;3.95;;;21.70;99.90;;;;;;4969628;28;20062;-83
2020/12/24 10:38:36;;;;;;;19.05;2.72;;;21.70;99.90;;;;;;4968737;28;20062;-84
2020/12/24 10:41:03;;;;;;;21.77;3.60;;;21.70;99.90;;;;;;4969849;28;20074;-83
2020/12/24 10:43:31;;;;;;;21.50;3.25;;;21.60;99.90;;;;;;4951990;28;20394;-80
2020/12/24 10:45:59;;;;;;;15.43;2.80;;;21.60;99.90;;;;;;4968014;28;20085;-83
2020/12/24 10:48:26;;;;;;;19.65;2.90;;;21.60;99.90;;;;;;4966320;28;20391;-83
2020/12/24 10:50:56;;;;;;;22.52;3.63;;;21.50;99.90;;;;;;4965447;28;20038;-83
2020/12/24 10:53:23;;;;;;;20.10;3.17;;;21.50;99.90;;;;;;4965347;28;20399;-83
2020/12/24 10:55:50;;;;;;;21.20;3.22;;;21.50;99.90;;;;;;4969581;28;20447;-84
2020/12/24 10:58:18;;;;;;;18.98;2.60;;;21.50;99.90;;;;;;4968443;28;20031;-83
2020/12/24 11:00:45;;;;;;;17.02;3.08;;;21.50;99.90;;;;;;4968971;28;20087;-83
2020/12/24 11:03:12;;;;;;;25.02;4.13;;;21.50;99.90;;;;;;4969868;28;20042;-83
2020/12/24 11:05:39;;;;;;;22.90;4.50;;;21.50;99.90;;;;;;4965862;28;20042;-83
2020/12/24 11:08:07;;;;;;;20.33;2.30;;;21.50;99.90;;;;;;4969673;28;20023;-83
2020/12/24 11:10:34;;;;;;;20.55;4.05;;;21.60;99.90;;;;;;4972002;28;20520;-83
2020/12/24 11:13:01;;;;;;;24.48;4.07;;;21.50;99.90;;;;;;4970696;28;20019;-83
2020/12/24 11:15:28;;;;;;;22.40;3.08;;;21.60;99.90;;;;;;4970963;28;20077;-83
2020/12/24 11:17:56;;;;;;;16.10;3.13;;;21.60;99.90;;;;;;4970949;28;20031;-84
2020/12/24 11:20:23;;;;;;;21.35;3.38;;;21.60;99.90;;;;;;4972266;28;20022;-84
2020/12/24 11:22:50;;;;;;;18.80;3.20;;;21.70;99.90;;;;;;4973248;28;20037;-83
2020/12/24 11:25:17;;;;;;;11.82;2.45;;;21.70;99.90;;;;;;4975811;28;20085;-83
2020/12/24 11:27:45;;;;;;;20.10;3.50;;;21.70;99.90;;;;;;4974105;28;20023;-83
2020/12/24 11:30:12;;;;;;;14.88;2.20;;;21.70;99.90;;;;;;4956994;28;20042;-84
2020/12/24 11:32:39;;;;;;;20.10;2.97;;;21.70;99.90;;;;;;4974668;28;20033;-83
2020/12/24 11:35:06;;;;;;;22.98;2.13;;;21.80;99.90;;;;;;5009855;23;20062;-83
2020/12/24 11:37:34;;;;;;;20.55;2.92;;;21.80;99.90;;;;;;4990741;23;20440;-83
2020/12/24 11:40:01;;;;;;;24.20;4.25;;;21.80;99.90;;;;;;4970788;28;20027;-84
2020/12/24 11:42:31;;;;;;;27.40;3.60;;;21.80;99.90;;;;;;4989427;23;20087;-84
2020/12/24 11:44:58;;;;;;;20.02;3.20;;;21.80;99.90;;;;;;4957005;28;20043;-83
2020/12/24 11:47:25;;;;;;;18.27;3.40;;;21.80;99.90;;;;;;4973803;28;20057;-83
2020/12/24 11:49:53;;;;;;;17.25;2.67;;;21.90;99.90;;;;;;4992963;23;20019;-83
2020/12/24 11:52:20;;;;;;;14.00;3.17;;;21.80;99.90;;;;;;4973319;28;20058;-83
2020/12/24 11:54:48;;;;;;;16.27;3.08;;;21.80;99.90;;;;;;4969538;28;20042;-83
2020/12/24 11:57:15;;;;;;;14.07;2.75;;;21.80;99.90;;;;;;4973495;28;20022;-83
2020/12/24 11:59:42;;;;;;;22.23;3.17;;;21.80;99.90;;;;;;4970764;28;20026;-82
2020/12/24 12:02:10;;;;;;;18.80;3.28;;;21.80;99.90;;;;;;4973172;28;20073;-82
2020/12/24 12:04:37;;;;;;;15.98;2.70;;;21.70;99.90;;;;;;4973076;28;20027;-82
2020/12/24 12:07:04;;;;;;;20.58;2.72;;;21.70;99.90;;;;;;4976141;23;20051;-83
2020/12/24 12:09:31;;;;;;;20.23;2.03;;;21.60;99.90;;;;;;4937672;29;20043;-82
2020/12/24 12:11:58;;;;;;;12.57;2.13;;;21.60;99.90;;;;;;4954089;28;20023;-82
2020/12/24 12:14:26;;;;;;;15.98;2.60;;;21.60;99.90;;;;;;4953391;29;20023;-81
2020/12/24 12:16:53;;;;;;;12.45;2.58;;;21.50;99.90;;;;;;4953449;28;20027;-82
2020/12/24 12:19:20;;;;;;;16.48;2.67;;;21.50;99.90;;;;;;4955288;28;20019;-82
2020/12/24 12:21:49;;;;;;;17.30;2.45;;;21.60;99.90;;;;;;4936847;29;20027;-82
2020/12/24 12:24:18;;;;;;;20.67;2.75;;;21.60;99.90;;;;;;4955782;28;20039;-82
2020/12/24 12:26:48;;;;;;;16.40;2.00;;;21.60;99.90;;;;;;4953260;28;21015;-83
2020/12/24 12:29:16;;;;;;;20.95;2.17;;;21.60;99.90;;;;;;4955056;28;20050;-81
2020/12/24 12:31:43;;;;;;;18.48;2.63;;;21.50;99.90;;;;;;4951961;28;20468;-82
2020/12/24 12:34:10;;;;;;;16.77;3.17;;;21.50;99.90;;;;;;4951080;28;20034;-81
2020/12/24 12:36:37;;;;;;;20.00;2.78;;;21.50;99.90;;;;;;4951561;28;20146;-82
2020/12/24 12:39:05;;;;;;;12.55;1.60;;;21.50;99.90;;;;;;4955396;28;20106;-81
2020/12/24 12:41:32;;;;;;;14.68;2.58;;;21.40;99.90;;;;;;4979252;23;20074;-82
2020/12/24 12:44:00;;;;;;;14.48;2.40;;;21.40;99.90;;;;;;4972666;28;20026;-81
2020/12/24 12:46:29;;;;;;;14.35;2.55;;;21.50;99.90;;;;;;4991424;28;20557;-82
2020/12/24 12:48:56;;;;;;;17.60;2.17;;;21.40;99.90;;;;;;4966493;28;20019;-82
2020/12/24 12:51:24;;;;;;;13.93;2.08;;;21.40;99.90;;;;;;4974583;28;20081;-82